createdAt,value
2017-04-29T00:01:10.666Z,1008.39
2017-04-29T00:02:10.384Z,1008.38
2017-04-29T00:03:10.323Z,1008.34
2017-04-29T00:04:10.257Z,1008.39
2017-04-29T00:05:10.193Z,1008.39
2017-04-29T00:06:10.132Z,1008.38
2017-04-29T00:07:10.070Z,1008.41
2017-04-29T00:08:10.007Z,1008.42
2017-04-29T00:09:09.943Z,1008.42
2017-04-29T00:10:09.881Z,1008.43
2017-04-29T00:11:09.817Z,1008.45
2017-04-29T00:12:09.755Z,1008.45
2017-04-29T00:13:09.693Z,1008.51
2017-04-29T00:14:09.629Z,1008.48
2017-04-29T00:15:09.567Z,1008.48
2017-04-29T00:16:09.506Z,1008.49
2017-04-29T00:17:09.443Z,1008.51
2017-04-29T00:18:09.379Z,1008.5
2017-04-29T00:19:09.315Z,1008.5
2017-04-29T00:20:09.252Z,1008.49
2017-04-29T00:21:09.192Z,1008.55
2017-04-29T00:22:09.127Z,1008.54
2017-04-29T00:23:09.065Z,1008.52
2017-04-29T00:24:09.002Z,1008.49
2017-04-29T00:25:08.940Z,1008.53
2017-04-29T00:26:08.876Z,1008.5
2017-04-29T00:27:08.813Z,1008.49
2017-04-29T00:28:08.751Z,1008.49
2017-04-29T00:29:08.688Z,1008.52
2017-04-29T00:30:08.625Z,1008.52
2017-04-29T00:31:08.561Z,1008.51
2017-04-29T00:32:08.800Z,1008.56
2017-04-29T00:33:08.436Z,1008.55
2017-04-29T00:34:08.374Z,1008.55
2017-04-29T00:35:08.311Z,1008.56
2017-04-29T00:36:08.248Z,1008.59
2017-04-29T00:37:08.186Z,1008.59
2017-04-29T00:38:08.123Z,1008.57
2017-04-29T00:39:08.060Z,1008.58
2017-04-29T00:40:07.998Z,1008.59
2017-04-29T00:41:07.933Z,1008.61
2017-04-29T00:42:07.872Z,1008.64
2017-04-29T00:43:07.809Z,1008.63
2017-04-29T00:44:07.745Z,1008.64
2017-04-29T00:45:07.682Z,1008.69
2017-04-29T00:46:07.621Z,1008.72
2017-04-29T00:47:07.558Z,1008.75
2017-04-29T00:48:07.494Z,1008.75
2017-04-29T00:49:07.431Z,1008.79
2017-04-29T00:50:07.370Z,1008.74
2017-04-29T00:51:07.308Z,1008.77
2017-04-29T00:52:07.245Z,1008.79
2017-04-29T00:53:07.182Z,1008.83
2017-04-29T00:54:07.118Z,1008.8
2017-04-29T00:55:07.055Z,1008.82
2017-04-29T00:56:06.994Z,1008.86
2017-04-29T00:57:06.930Z,1008.85
2017-04-29T00:58:06.875Z,1008.84
2017-04-29T00:59:06.803Z,1008.89
2017-04-29T01:00:06.751Z,1008.89
2017-04-29T01:01:06.679Z,1008.92
2017-04-29T01:02:06.617Z,1008.94
2017-04-29T01:03:06.554Z,1008.95
2017-04-29T01:04:06.491Z,1008.95
2017-04-29T01:05:06.429Z,1008.97
2017-04-29T01:06:06.365Z,1009.02
2017-04-29T01:07:06.301Z,1009
2017-04-29T01:08:06.241Z,1009.02
2017-04-29T01:09:06.183Z,1009.05
2017-04-29T01:10:06.114Z,1009.11
2017-04-29T01:11:06.051Z,1009.1
2017-04-29T01:12:05.990Z,1009.13
2017-04-29T01:13:05.926Z,1009.07
2017-04-29T01:14:05.863Z,1009.04
2017-04-29T01:15:05.810Z,1009.04
2017-04-29T01:16:05.738Z,1009.03
2017-04-29T01:17:05.674Z,1009.04
2017-04-29T01:18:05.611Z,1009.06
2017-04-29T01:19:05.549Z,1009.06
2017-04-29T01:20:05.492Z,1009.1
2017-04-29T01:21:05.424Z,1009.06
2017-04-29T01:22:05.360Z,1009.11
2017-04-29T01:23:05.298Z,1009.08
2017-04-29T01:24:05.236Z,1009.13
2017-04-29T01:25:05.175Z,1009.14
2017-04-29T01:26:05.110Z,1009.14
2017-04-29T01:27:05.048Z,1009.18
2017-04-29T01:28:04.984Z,1009.2
2017-04-29T01:29:04.921Z,1009.18
2017-04-29T01:30:04.858Z,1009.19
2017-04-29T01:31:04.796Z,1009.2
2017-04-29T01:32:04.732Z,1009.2
2017-04-29T01:33:04.670Z,1009.25
2017-04-29T01:34:04.607Z,1009.22
2017-04-29T01:35:04.545Z,1009.21
2017-04-29T01:36:04.483Z,1009.22
2017-04-29T01:37:04.432Z,1009.24
2017-04-29T01:38:04.361Z,1009.24
2017-04-29T01:39:04.294Z,1009.28
2017-04-29T01:40:04.231Z,1009.3
2017-04-29T01:41:04.169Z,1009.28
2017-04-29T01:42:04.105Z,1009.25
2017-04-29T01:43:04.043Z,1009.2
2017-04-29T01:44:03.980Z,1009.14
2017-04-29T01:45:03.918Z,1009.12
2017-04-29T01:46:03.855Z,1009.13
2017-04-29T01:47:03.792Z,1009.1
2017-04-29T01:48:03.729Z,1009.12
2017-04-29T01:49:03.668Z,1009.1
2017-04-29T01:50:03.604Z,1009.05
2017-04-29T01:51:03.540Z,1009.11
2017-04-29T01:52:03.487Z,1009.11
2017-04-29T01:53:03.416Z,1009.09
2017-04-29T01:54:03.351Z,1009.12
2017-04-29T01:55:03.290Z,1009.11
2017-04-29T01:56:03.227Z,1009.12
2017-04-29T01:57:03.164Z,1009.09
2017-04-29T01:58:03.101Z,1009.1
2017-04-29T01:59:03.039Z,1009.08
2017-04-29T02:00:02.976Z,1009.05
2017-04-29T02:01:02.912Z,1008.96
2017-04-29T02:02:02.850Z,1008.95
2017-04-29T02:03:02.787Z,1008.94
2017-04-29T02:04:02.726Z,1008.95
2017-04-29T02:05:02.661Z,1008.95
2017-04-29T02:06:02.599Z,1008.98
2017-04-29T02:07:02.577Z,1008.96
2017-04-29T02:08:02.473Z,1008.94
2017-04-29T02:09:02.411Z,1008.93
2017-04-29T02:10:02.348Z,1008.93
2017-04-29T02:11:02.285Z,1008.96
2017-04-29T02:12:02.222Z,1008.91
2017-04-29T02:13:02.159Z,1008.93
2017-04-29T02:14:02.097Z,1008.94
2017-04-29T02:15:02.034Z,1008.9
2017-04-29T02:16:01.970Z,1008.91
2017-04-29T02:17:01.909Z,1008.89
2017-04-29T02:18:01.847Z,1008.89
2017-04-29T02:19:01.782Z,1008.89
2017-04-29T02:20:01.720Z,1008.91
2017-04-29T02:21:01.657Z,1008.91
2017-04-29T02:22:01.594Z,1008.88
2017-04-29T02:23:01.530Z,1008.91
2017-04-29T02:24:01.468Z,1008.91
2017-04-29T02:25:01.406Z,1008.93
2017-04-29T02:26:01.343Z,1008.94
2017-04-29T02:27:01.281Z,1008.96
2017-04-29T02:28:01.216Z,1008.94
2017-04-29T02:29:01.153Z,1008.99
2017-04-29T02:30:01.092Z,1008.96
2017-04-29T02:31:01.028Z,1008.96
2017-04-29T02:32:00.966Z,1008.99
2017-04-29T02:33:00.904Z,1008.99
2017-04-29T02:34:00.840Z,1009
2017-04-29T02:35:00.778Z,1008.98
2017-04-29T02:36:00.715Z,1009
2017-04-29T02:37:00.653Z,1009.01
2017-04-29T02:38:00.592Z,1009
2017-04-29T02:39:00.526Z,1009
2017-04-29T02:40:00.463Z,1009.01
2017-04-29T02:41:00.413Z,1008.99
2017-04-29T02:42:00.337Z,1009.01
2017-04-29T02:43:00.282Z,1008.98
2017-04-29T02:44:00.213Z,1008.98
2017-04-29T02:45:00.148Z,1008.94
2017-04-29T02:46:00.086Z,1008.95
2017-04-29T02:47:00.024Z,1008.92
2017-04-29T02:47:59.973Z,1008.91
2017-04-29T02:48:59.898Z,1008.89
2017-04-29T02:49:59.842Z,1008.9
2017-04-29T02:50:59.783Z,1008.92
2017-04-29T02:51:59.709Z,1008.89
2017-04-29T02:52:59.648Z,1008.88
2017-04-29T02:53:59.593Z,1008.83
2017-04-29T02:54:59.533Z,1008.85
2017-04-29T02:55:59.458Z,1008.86
2017-04-29T02:56:59.395Z,1008.88
2017-04-29T02:57:59.334Z,1008.87
2017-04-29T02:58:59.284Z,1008.88
2017-04-29T02:59:59.207Z,1008.94
2017-04-29T03:00:59.144Z,1008.96
2017-04-29T03:01:59.082Z,1008.99
2017-04-29T03:02:59.019Z,1009.04
2017-04-29T03:03:58.956Z,1009.02
2017-04-29T03:04:58.894Z,1009.05
2017-04-29T03:05:58.831Z,1009.06
2017-04-29T03:06:58.767Z,1009.06
2017-04-29T03:07:58.714Z,1009.07
2017-04-29T03:08:58.642Z,1009.1
2017-04-29T03:09:58.579Z,1009.09
2017-04-29T03:10:58.516Z,1009.12
2017-04-29T03:11:58.454Z,1009.16
2017-04-29T03:12:58.393Z,1009.15
2017-04-29T03:13:58.329Z,1009.17
2017-04-29T03:14:58.275Z,1009.19
2017-04-29T03:15:58.203Z,1009.17
2017-04-29T03:16:58.141Z,1009.18
2017-04-29T03:17:58.077Z,1009.2
2017-04-29T03:18:58.017Z,1009.23
2017-04-29T03:19:57.952Z,1009.21
2017-04-29T03:20:57.888Z,1009.23
2017-04-29T03:21:57.835Z,1009.22
2017-04-29T03:22:57.763Z,1009.25
2017-04-29T03:23:57.714Z,1009.25
2017-04-29T03:24:57.637Z,1009.23
2017-04-29T03:25:57.575Z,1009.27
2017-04-29T03:26:57.512Z,1009.26
2017-04-29T03:27:57.449Z,1009.25
2017-04-29T03:28:57.398Z,1009.26
2017-04-29T03:29:57.325Z,1009.27
2017-04-29T03:30:57.262Z,1009.31
2017-04-29T03:31:57.198Z,1009.29
2017-04-29T03:32:57.137Z,1009.29
2017-04-29T03:33:57.073Z,1009.27
2017-04-29T03:34:57.010Z,1009.27
2017-04-29T03:35:56.946Z,1009.3
2017-04-29T03:36:56.890Z,1009.31
2017-04-29T03:37:56.823Z,1009.32
2017-04-29T03:38:56.759Z,1009.33
2017-04-29T03:39:56.695Z,1009.34
2017-04-29T03:40:56.632Z,1009.36
2017-04-29T03:41:56.570Z,1009.38
2017-04-29T03:42:56.506Z,1009.34
2017-04-29T03:43:56.445Z,1009.36
2017-04-29T03:44:56.381Z,1009.36
2017-04-29T03:45:56.319Z,1009.37
2017-04-29T03:46:56.257Z,1009.34
2017-04-29T03:47:56.193Z,1009.36
2017-04-29T03:48:56.130Z,1009.37
2017-04-29T03:49:56.068Z,1009.36
2017-04-29T03:50:56.003Z,1009.36
2017-04-29T03:51:55.941Z,1009.4
2017-04-29T03:52:55.879Z,1009.41
2017-04-29T03:53:55.816Z,1009.4
2017-04-29T03:54:55.753Z,1009.43
2017-04-29T03:55:55.689Z,1009.43
2017-04-29T03:56:55.628Z,1009.44
2017-04-29T03:57:55.563Z,1009.44
2017-04-29T03:58:55.501Z,1009.51
2017-04-29T03:59:55.439Z,1009.51
2017-04-29T04:00:55.376Z,1009.5
2017-04-29T04:01:55.313Z,1009.53
2017-04-29T04:02:55.250Z,1009.52
2017-04-29T04:03:55.188Z,1009.5
2017-04-29T04:04:55.125Z,1009.56
2017-04-29T04:05:55.062Z,1009.54
2017-04-29T04:06:54.999Z,1009.51
2017-04-29T04:07:54.937Z,1009.54
2017-04-29T04:08:54.873Z,1009.57
2017-04-29T04:09:54.811Z,1009.56
2017-04-29T04:10:54.748Z,1009.57
2017-04-29T04:11:54.685Z,1009.59
2017-04-29T04:12:54.622Z,1009.6
2017-04-29T04:13:54.559Z,1009.6
2017-04-29T04:14:54.496Z,1009.61
2017-04-29T04:15:54.433Z,1009.68
2017-04-29T04:16:54.370Z,1009.69
2017-04-29T04:17:54.308Z,1009.68
2017-04-29T04:18:54.246Z,1009.66
2017-04-29T04:19:54.183Z,1009.66
2017-04-29T04:20:54.119Z,1009.62
2017-04-29T04:21:54.056Z,1009.6
2017-04-29T04:22:53.994Z,1009.62
2017-04-29T04:23:53.930Z,1009.58
2017-04-29T04:24:53.868Z,1009.59
2017-04-29T04:25:53.805Z,1009.55
2017-04-29T04:26:53.741Z,1009.61
2017-04-29T04:27:53.679Z,1009.59
2017-04-29T04:28:53.616Z,1009.6
2017-04-29T04:29:53.554Z,1009.64
2017-04-29T04:30:53.490Z,1009.61
2017-04-29T04:31:53.429Z,1009.62
2017-04-29T04:32:53.366Z,1009.66
2017-04-29T04:33:53.303Z,1009.72
2017-04-29T04:34:53.239Z,1009.74
2017-04-29T04:35:53.176Z,1009.75
2017-04-29T04:36:53.114Z,1009.75
2017-04-29T04:37:53.050Z,1009.73
2017-04-29T04:38:52.988Z,1009.74
2017-04-29T04:39:52.926Z,1009.71
2017-04-29T04:40:52.862Z,1009.74
2017-04-29T04:41:52.799Z,1009.79
2017-04-29T04:42:52.737Z,1009.78
2017-04-29T04:43:52.674Z,1009.77
2017-04-29T04:44:52.613Z,1009.77
2017-04-29T04:45:52.549Z,1009.79
2017-04-29T04:46:52.487Z,1009.75
2017-04-29T04:47:52.424Z,1009.74
2017-04-29T04:48:52.360Z,1009.75
2017-04-29T04:49:52.300Z,1009.75
2017-04-29T04:50:52.385Z,1009.76
2017-04-29T04:51:52.172Z,1009.74
2017-04-29T04:52:52.109Z,1009.73
2017-04-29T04:53:52.046Z,1009.76
2017-04-29T04:54:51.984Z,1009.73
2017-04-29T04:55:51.920Z,1009.72
2017-04-29T04:56:51.857Z,1009.69
2017-04-29T04:57:51.795Z,1009.73
2017-04-29T04:58:51.732Z,1009.7
2017-04-29T04:59:51.669Z,1009.75
2017-04-29T05:00:51.606Z,1009.72
2017-04-29T05:01:51.543Z,1009.69
2017-04-29T05:02:51.481Z,1009.71
2017-04-29T05:03:51.417Z,1009.7
2017-04-29T05:04:51.355Z,1009.71
2017-04-29T05:05:51.292Z,1009.71
2017-04-29T05:06:51.229Z,1009.74
2017-04-29T05:07:51.167Z,1009.76
2017-04-29T05:08:51.104Z,1009.79
2017-04-29T05:09:51.042Z,1009.8
2017-04-29T05:10:50.978Z,1009.83
2017-04-29T05:11:50.915Z,1009.79
2017-04-29T05:12:50.854Z,1009.87
2017-04-29T05:13:50.790Z,1009.88
2017-04-29T05:14:50.726Z,1009.86
2017-04-29T05:15:50.664Z,1009.91
2017-04-29T05:16:50.602Z,1009.95
2017-04-29T05:17:50.538Z,1009.97
2017-04-29T05:18:50.474Z,1009.97
2017-04-29T05:19:50.413Z,1010.02
2017-04-29T05:20:50.350Z,1010.04
2017-04-29T05:21:50.286Z,1010.08
2017-04-29T05:22:50.225Z,1010.07
2017-04-29T05:23:50.161Z,1010.09
2017-04-29T05:24:50.099Z,1010.14
2017-04-29T05:25:50.035Z,1010.15
2017-04-29T05:26:49.973Z,1010.15
2017-04-29T05:27:49.910Z,1010.18
2017-04-29T05:28:49.847Z,1010.21
2017-04-29T05:29:49.794Z,1010.2
2017-04-29T05:30:49.722Z,1010.23
2017-04-29T05:31:49.659Z,1010.26
2017-04-29T05:32:49.597Z,1010.23
2017-04-29T05:33:49.533Z,1010.18
2017-04-29T05:34:49.471Z,1010.22
2017-04-29T05:35:49.407Z,1010.25
2017-04-29T05:36:49.345Z,1010.25
2017-04-29T05:37:49.321Z,1010.26
2017-04-29T05:38:49.219Z,1010.25
2017-04-29T05:39:49.155Z,1010.28
2017-04-29T05:40:49.093Z,1010.28
2017-04-29T05:41:49.031Z,1010.25
2017-04-29T05:42:48.968Z,1010.29
2017-04-29T05:43:48.904Z,1010.3
2017-04-29T05:44:48.842Z,1010.3
2017-04-29T05:45:48.789Z,1010.31
2017-04-29T05:46:48.716Z,1010.33
2017-04-29T05:47:48.658Z,1010.37
2017-04-29T05:48:48.595Z,1010.39
2017-04-29T05:49:48.528Z,1010.38
2017-04-29T05:50:48.464Z,1010.34
2017-04-29T05:51:48.402Z,1010.33
2017-04-29T05:52:48.339Z,1010.35
2017-04-29T05:53:48.276Z,1010.36
2017-04-29T05:54:48.213Z,1010.34
2017-04-29T05:55:48.151Z,1010.36
2017-04-29T05:56:48.088Z,1010.35
2017-04-29T05:57:48.026Z,1010.38
2017-04-29T05:58:47.962Z,1010.36
2017-04-29T05:59:47.899Z,1010.4
2017-04-29T06:00:47.836Z,1010.4
2017-04-29T06:01:47.772Z,1010.38
2017-04-29T06:02:47.709Z,1010.46
2017-04-29T06:03:47.648Z,1010.43
2017-04-29T06:04:47.585Z,1010.48
2017-04-29T06:05:47.523Z,1010.49
2017-04-29T06:06:47.459Z,1010.51
2017-04-29T06:07:47.397Z,1010.51
2017-04-29T06:08:47.335Z,1010.49
2017-04-29T06:09:47.271Z,1010.52
2017-04-29T06:10:47.207Z,1010.54
2017-04-29T06:11:47.146Z,1010.55
2017-04-29T06:12:47.088Z,1010.57
2017-04-29T06:13:47.019Z,1010.58
2017-04-29T06:14:46.956Z,1010.58
2017-04-29T06:15:46.894Z,1010.55
2017-04-29T06:16:46.830Z,1010.57
2017-04-29T06:17:46.770Z,1010.56
2017-04-29T06:18:46.706Z,1010.54
2017-04-29T06:19:46.643Z,1010.58
2017-04-29T06:20:46.580Z,1010.52
2017-04-29T06:21:46.519Z,1010.5
2017-04-29T06:22:46.455Z,1010.54
2017-04-29T06:23:46.392Z,1010.58
2017-04-29T06:24:46.329Z,1010.56
2017-04-29T06:25:46.266Z,1010.58
2017-04-29T06:26:46.204Z,1010.6
2017-04-29T06:27:46.142Z,1010.6
2017-04-29T06:28:46.078Z,1010.57
2017-04-29T06:29:46.015Z,1010.57
2017-04-29T06:30:45.951Z,1010.56
2017-04-29T06:31:45.889Z,1010.57
2017-04-29T06:32:45.826Z,1010.59
2017-04-29T06:33:45.764Z,1010.58
2017-04-29T06:34:45.700Z,1010.57
2017-04-29T06:35:45.638Z,1010.61
2017-04-29T06:36:45.575Z,1010.61
2017-04-29T06:37:45.512Z,1010.58
2017-04-29T06:38:45.448Z,1010.61
2017-04-29T06:39:45.386Z,1010.57
2017-04-29T06:40:45.324Z,1010.57
2017-04-29T06:41:45.264Z,1010.58
2017-04-29T06:42:45.197Z,1010.58
2017-04-29T06:43:45.135Z,1010.59
2017-04-29T06:44:45.073Z,1010.59
2017-04-29T06:45:45.009Z,1010.61
2017-04-29T06:46:44.947Z,1010.68
2017-04-29T06:47:44.883Z,1010.67
2017-04-29T06:48:44.820Z,1010.65
2017-04-29T06:49:44.758Z,1010.67
2017-04-29T06:50:44.694Z,1010.68
2017-04-29T06:51:44.633Z,1010.68
2017-04-29T06:52:44.569Z,1010.7
2017-04-29T06:53:44.507Z,1010.65
2017-04-29T06:54:44.444Z,1010.64
2017-04-29T06:55:44.382Z,1010.64
2017-04-29T06:56:44.318Z,1010.71
2017-04-29T06:57:44.255Z,1010.69
2017-04-29T06:58:44.192Z,1010.71
2017-04-29T06:59:44.130Z,1010.75
2017-04-29T07:00:44.066Z,1010.74
2017-04-29T07:01:44.004Z,1010.74
2017-04-29T07:02:43.942Z,1010.74
2017-04-29T07:03:43.878Z,1010.76
2017-04-29T07:04:43.815Z,1010.76
2017-04-29T07:05:43.753Z,1010.77
2017-04-29T07:06:43.690Z,1010.74
2017-04-29T07:07:43.627Z,1010.8
2017-04-29T07:08:43.563Z,1010.72
2017-04-29T07:09:43.501Z,1010.72
2017-04-29T07:10:43.439Z,1010.76
2017-04-29T07:11:43.375Z,1010.76
2017-04-29T07:12:43.313Z,1010.74
2017-04-29T07:13:43.253Z,1010.73
2017-04-29T07:14:43.186Z,1010.72
2017-04-29T07:15:43.124Z,1010.76
2017-04-29T07:16:43.060Z,1010.74
2017-04-29T07:17:42.998Z,1010.75
2017-04-29T07:18:42.936Z,1010.75
2017-04-29T07:19:42.873Z,1010.75
2017-04-29T07:20:42.810Z,1010.8
2017-04-29T07:21:42.748Z,1010.86
2017-04-29T07:22:42.684Z,1010.84
2017-04-29T07:23:42.622Z,1010.82
2017-04-29T07:24:42.559Z,1010.79
2017-04-29T07:25:42.496Z,1010.86
2017-04-29T07:26:42.434Z,1010.84
2017-04-29T07:27:42.409Z,1010.87
2017-04-29T07:28:42.307Z,1010.85
2017-04-29T07:29:42.245Z,1010.8
2017-04-29T07:30:42.182Z,1010.85
2017-04-29T07:31:42.119Z,1010.82
2017-04-29T07:32:42.061Z,1010.86
2017-04-29T07:33:41.994Z,1010.89
2017-04-29T07:34:41.931Z,1010.84
2017-04-29T07:35:41.868Z,1010.83
2017-04-29T07:36:41.807Z,1010.87
2017-04-29T07:37:41.743Z,1010.84
2017-04-29T07:38:41.680Z,1010.84
2017-04-29T07:39:41.617Z,1010.84
2017-04-29T07:40:41.553Z,1010.86
2017-04-29T07:41:41.491Z,1010.87
2017-04-29T07:42:41.429Z,1010.88
2017-04-29T07:43:41.367Z,1010.88
2017-04-29T07:44:41.302Z,1010.91
2017-04-29T07:45:41.241Z,1010.94
2017-04-29T07:46:41.177Z,1011.02
2017-04-29T07:47:41.117Z,1010.98
2017-04-29T07:48:41.053Z,1010.97
2017-04-29T07:49:40.990Z,1010.95
2017-04-29T07:50:40.927Z,1010.96
2017-04-29T07:51:40.863Z,1010.93
2017-04-29T07:52:40.801Z,1010.99
2017-04-29T07:53:40.738Z,1010.94
2017-04-29T07:54:40.676Z,1010.96
2017-04-29T07:55:40.612Z,1010.96
2017-04-29T07:56:40.551Z,1010.93
2017-04-29T07:57:40.488Z,1010.97
2017-04-29T07:58:40.425Z,1010.96
2017-04-29T07:59:40.362Z,1010.99
2017-04-29T08:00:40.300Z,1010.94
2017-04-29T08:01:40.238Z,1010.98
2017-04-29T08:02:40.173Z,1011.05
2017-04-29T08:03:40.111Z,1011.05
2017-04-29T08:04:40.049Z,1011.01
2017-04-29T08:05:39.989Z,1011.04
2017-04-29T08:06:39.922Z,1011.09
2017-04-29T08:07:39.860Z,1011.06
2017-04-29T08:08:39.797Z,1011.05
2017-04-29T08:09:39.734Z,1011.03
2017-04-29T08:10:39.672Z,1011.03
2017-04-29T08:11:39.635Z,1011.03
2017-04-29T08:12:39.550Z,1011.09
2017-04-29T08:13:39.483Z,1011.06
2017-04-29T08:14:39.421Z,1011.12
2017-04-29T08:15:39.358Z,1011.08
2017-04-29T08:16:39.294Z,1011.12
2017-04-29T08:17:39.232Z,1011.1
2017-04-29T08:18:39.168Z,1011.11
2017-04-29T08:19:39.106Z,1011.09
2017-04-29T08:20:39.043Z,1011.17
2017-04-29T08:21:38.982Z,1011.14
2017-04-29T08:22:38.919Z,1011.18
2017-04-29T08:23:38.856Z,1011.21
2017-04-29T08:24:38.807Z,1011.21
2017-04-29T08:25:38.730Z,1011.19
2017-04-29T08:26:38.667Z,1011.14
2017-04-29T08:27:38.604Z,1011.16
2017-04-29T08:28:38.541Z,1011.17
2017-04-29T08:29:38.479Z,1011.14
2017-04-29T08:30:38.417Z,1011.22
2017-04-29T08:31:38.354Z,1011.3
2017-04-29T08:32:38.291Z,1011.28
2017-04-29T08:33:38.228Z,1011.32
2017-04-29T08:34:38.166Z,1011.3
2017-04-29T08:35:38.102Z,1011.34
2017-04-29T08:36:38.040Z,1011.34
2017-04-29T08:37:37.976Z,1011.34
2017-04-29T08:38:37.914Z,1011.44
2017-04-29T08:39:37.853Z,1011.43
2017-04-29T08:40:37.789Z,1011.43
2017-04-29T08:41:37.727Z,1011.43
2017-04-29T08:42:37.663Z,1011.45
2017-04-29T08:43:37.600Z,1011.45
2017-04-29T08:44:37.538Z,1011.47
2017-04-29T08:45:37.475Z,1011.46
2017-04-29T08:46:37.413Z,1011.5
2017-04-29T08:47:37.350Z,1011.51
2017-04-29T08:48:37.287Z,1011.51
2017-04-29T08:49:37.224Z,1011.48
2017-04-29T08:50:37.160Z,1011.51
2017-04-29T08:51:37.099Z,1011.51
2017-04-29T08:52:37.037Z,1011.52
2017-04-29T08:53:36.972Z,1011.51
2017-04-29T08:54:36.910Z,1011.5
2017-04-29T08:55:36.848Z,1011.49
2017-04-29T08:56:36.786Z,1011.49
2017-04-29T08:57:36.724Z,1011.55
2017-04-29T08:58:36.659Z,1011.59
2017-04-29T08:59:36.596Z,1011.59
2017-04-29T09:00:36.534Z,1011.57
2017-04-29T09:01:36.471Z,1011.6
2017-04-29T09:02:36.409Z,1011.55
2017-04-29T09:03:36.346Z,1011.54
2017-04-29T09:04:36.282Z,1011.51
2017-04-29T09:05:36.220Z,1011.5
2017-04-29T09:06:36.158Z,1011.53
2017-04-29T09:07:36.094Z,1011.6
2017-04-29T09:08:36.032Z,1011.59
2017-04-29T09:09:35.969Z,1011.64
2017-04-29T09:10:35.907Z,1011.59
2017-04-29T09:11:35.844Z,1011.66
2017-04-29T09:12:35.783Z,1011.69
2017-04-29T09:13:35.718Z,1011.7
2017-04-29T09:14:35.656Z,1011.63
2017-04-29T09:15:35.592Z,1011.64
2017-04-29T09:16:35.530Z,1011.66
2017-04-29T09:17:35.467Z,1011.68
2017-04-29T09:18:35.405Z,1011.69
2017-04-29T09:19:35.343Z,1011.66
2017-04-29T09:20:35.279Z,1011.64
2017-04-29T09:21:35.217Z,1011.66
2017-04-29T09:22:35.152Z,1011.69
2017-04-29T09:23:35.091Z,1011.69
2017-04-29T09:24:35.028Z,1011.69
2017-04-29T09:25:34.967Z,1011.69
2017-04-29T09:26:34.905Z,1011.73
2017-04-29T09:27:34.840Z,1011.76
2017-04-29T09:28:34.778Z,1011.71
2017-04-29T09:29:34.715Z,1011.65
2017-04-29T09:30:34.653Z,1011.62
2017-04-29T09:31:34.590Z,1011.74
2017-04-29T09:32:34.528Z,1011.69
2017-04-29T09:33:34.465Z,1011.74
2017-04-29T09:34:34.402Z,1011.72
2017-04-29T09:35:34.339Z,1011.72
2017-04-29T09:36:34.277Z,1011.75
2017-04-29T09:37:34.213Z,1011.78
2017-04-29T09:38:34.151Z,1011.78
2017-04-29T09:39:34.088Z,1011.8
2017-04-29T09:40:34.024Z,1011.75
2017-04-29T09:41:33.963Z,1011.77
2017-04-29T09:42:33.900Z,1011.81
2017-04-29T09:43:33.838Z,1011.77
2017-04-29T09:44:33.774Z,1011.8
2017-04-29T09:45:33.712Z,1011.78
2017-04-29T09:46:33.649Z,1011.81
2017-04-29T09:47:33.588Z,1011.78
2017-04-29T09:48:33.524Z,1011.82
2017-04-29T09:49:33.461Z,1011.79
2017-04-29T09:50:33.399Z,1011.83
2017-04-29T09:51:33.335Z,1011.8
2017-04-29T09:52:33.275Z,1011.79
2017-04-29T09:53:33.210Z,1011.85
2017-04-29T09:54:33.148Z,1011.83
2017-04-29T09:55:33.084Z,1011.83
2017-04-29T09:56:33.022Z,1011.81
2017-04-29T09:57:32.960Z,1011.83
2017-04-29T09:58:32.897Z,1011.82
2017-04-29T09:59:32.863Z,1011.78
2017-04-29T10:00:32.772Z,1011.75
2017-04-29T10:01:32.737Z,1011.74
2017-04-29T10:02:32.646Z,1011.77
2017-04-29T10:03:32.582Z,1011.77
2017-04-29T10:04:32.520Z,1011.78
2017-04-29T10:05:32.457Z,1011.74
2017-04-29T10:06:32.394Z,1011.74
2017-04-29T10:07:32.332Z,1011.78
2017-04-29T10:08:32.269Z,1011.76
2017-04-29T10:09:32.207Z,1011.76
2017-04-29T10:10:32.145Z,1011.79
2017-04-29T10:11:32.081Z,1011.79
2017-04-29T10:12:32.018Z,1011.81
2017-04-29T10:13:31.956Z,1011.79
2017-04-29T10:14:31.893Z,1011.78
2017-04-29T10:15:31.830Z,1011.74
2017-04-29T10:16:31.768Z,1011.7
2017-04-29T10:17:31.704Z,1011.77
2017-04-29T10:18:31.642Z,1011.72
2017-04-29T10:19:31.579Z,1011.75
2017-04-29T10:20:31.516Z,1011.72
2017-04-29T10:21:31.454Z,1011.65
2017-04-29T10:22:31.390Z,1011.71
2017-04-29T10:23:31.328Z,1011.74
2017-04-29T10:24:31.264Z,1011.78
2017-04-29T10:25:31.203Z,1011.74
2017-04-29T10:26:31.141Z,1011.7
2017-04-29T10:27:31.077Z,1011.7
2017-04-29T10:28:31.014Z,1011.67
2017-04-29T10:29:30.951Z,1011.68
2017-04-29T10:30:30.889Z,1011.7
2017-04-29T10:31:30.826Z,1011.73
2017-04-29T10:32:30.764Z,1011.75
2017-04-29T10:33:30.701Z,1011.75
2017-04-29T10:34:30.639Z,1011.75
2017-04-29T10:35:30.575Z,1011.76
2017-04-29T10:36:30.513Z,1011.82
2017-04-29T10:37:30.450Z,1011.82
2017-04-29T10:38:30.388Z,1011.81
2017-04-29T10:39:30.326Z,1011.79
2017-04-29T10:40:30.263Z,1011.82
2017-04-29T10:41:30.200Z,1011.83
2017-04-29T10:42:30.138Z,1011.87
2017-04-29T10:43:30.073Z,1011.82
2017-04-29T10:44:30.011Z,1011.86
2017-04-29T10:45:29.949Z,1011.85
2017-04-29T10:46:29.885Z,1011.81
2017-04-29T10:47:29.823Z,1011.82
2017-04-29T10:48:29.761Z,1011.82
2017-04-29T10:49:29.697Z,1011.83
2017-04-29T10:50:29.634Z,1011.83
2017-04-29T10:51:29.571Z,1011.88
2017-04-29T10:52:29.509Z,1011.84
2017-04-29T10:53:29.447Z,1011.88
2017-04-29T10:54:29.383Z,1011.86
2017-04-29T10:55:29.321Z,1011.87
2017-04-29T10:56:29.258Z,1011.86
2017-04-29T10:57:29.195Z,1011.87
2017-04-29T10:58:29.133Z,1011.87
2017-04-29T10:59:29.070Z,1011.88
2017-04-29T11:00:29.007Z,1011.87
2017-04-29T11:01:28.944Z,1011.88
2017-04-29T11:02:28.882Z,1011.85
2017-04-29T11:03:28.819Z,1011.9
2017-04-29T11:04:28.757Z,1011.87
2017-04-29T11:05:28.695Z,1011.84
2017-04-29T11:06:28.632Z,1011.83
2017-04-29T11:07:28.570Z,1011.79
2017-04-29T11:08:28.507Z,1011.75
2017-04-29T11:09:28.444Z,1011.75
2017-04-29T11:10:28.381Z,1011.77
2017-04-29T11:11:28.318Z,1011.79
2017-04-29T11:12:28.256Z,1011.76
2017-04-29T11:13:28.193Z,1011.74
2017-04-29T11:14:28.130Z,1011.75
2017-04-29T11:15:28.067Z,1011.72
2017-04-29T11:16:28.005Z,1011.72
2017-04-29T11:17:27.942Z,1011.74
2017-04-29T11:18:27.884Z,1011.71
2017-04-29T11:19:27.816Z,1011.72
2017-04-29T11:20:27.754Z,1011.75
2017-04-29T11:21:27.692Z,1011.73
2017-04-29T11:22:27.629Z,1011.75
2017-04-29T11:23:27.566Z,1011.72
2017-04-29T11:24:27.503Z,1011.76
2017-04-29T11:25:27.441Z,1011.71
2017-04-29T11:26:27.380Z,1011.69
2017-04-29T11:27:27.316Z,1011.7
2017-04-29T11:28:27.254Z,1011.68
2017-04-29T11:29:27.191Z,1011.68
2017-04-29T11:30:27.127Z,1011.64
2017-04-29T11:31:27.065Z,1011.66
2017-04-29T11:32:27.002Z,1011.62
2017-04-29T11:33:26.941Z,1011.63
2017-04-29T11:34:26.877Z,1011.65
2017-04-29T11:35:26.814Z,1011.66
2017-04-29T11:36:26.752Z,1011.67
2017-04-29T11:37:26.689Z,1011.68
2017-04-29T11:38:26.626Z,1011.73
2017-04-29T11:39:26.566Z,1011.76
2017-04-29T11:40:26.502Z,1011.77
2017-04-29T11:41:26.438Z,1011.75
2017-04-29T11:42:26.379Z,1011.73
2017-04-29T11:43:26.314Z,1011.8
2017-04-29T11:44:26.252Z,1011.82
2017-04-29T11:45:26.188Z,1011.85
2017-04-29T11:46:26.130Z,1011.83
2017-04-29T11:47:26.069Z,1011.83
2017-04-29T11:48:26.001Z,1011.85
2017-04-29T11:49:25.939Z,1011.93
2017-04-29T11:50:25.875Z,1011.91
2017-04-29T11:51:25.812Z,1011.97
2017-04-29T11:52:25.749Z,1011.94
2017-04-29T11:53:25.687Z,1011.97
2017-04-29T11:54:25.625Z,1011.93
2017-04-29T11:55:25.562Z,1011.97
2017-04-29T11:56:25.499Z,1011.9
2017-04-29T11:57:25.436Z,1011.9
2017-04-29T11:58:25.377Z,1011.93
2017-04-29T11:59:25.311Z,1011.92
2017-04-29T12:00:25.249Z,1011.9
2017-04-29T12:01:25.185Z,1011.91
2017-04-29T12:02:25.124Z,1011.9
2017-04-29T12:03:25.060Z,1011.91
2017-04-29T12:04:24.997Z,1011.89
2017-04-29T12:05:24.935Z,1011.9
2017-04-29T12:06:24.873Z,1011.92
2017-04-29T12:07:24.810Z,1011.92
2017-04-29T12:08:24.747Z,1011.89